クェゼリン環礁 の空港の天気 - METARとTAF

バックホルツ陸軍飛行場 ( PKWA / KWA ) - マーシャル諸島 クェゼリン環礁
飛行場実況気象(Metar)
観測時間01/23 16:00 MHT (01/23 04:00 UTC)
風向・風速東南東 10m/s 瞬間風速15m/s
視程10km以上
天気現象
全天の8割程度の雲 雲底高度 580m
全天の8割程度の雲 雲底高度 940m
全天の8割程度の雲 雲底高度 1340m
気温29.4℃
湿度74%
気圧1005hPa
METARPKWA 230400Z AUTO 12020G30KT 7SM BKN019 BKN031 BKN044 29/24 A2968 RMK AO2 T02940243
過去の天気等 Google飛行場航空写真 Wunderground天気予報

過去48時間のMETAR

飛行場予報(TAF)
発表時間: 1/23 11:38 MHT (1/22 23:38 UTC)
予報対象時間: 23日12時 MHT ~ 24日12時 MHT
風向・風速東北東 6m/s 瞬間風速 9m/s
視程10km以上
天気現象周辺でしゅう雨
全天の4割程度の雲 雲底高度 610m
全天の4割程度の雲 雲底高度 1,520m
PKWA 222338Z 2300/2324 07011G18KT P6SM VCSH SCT020 SCT050